Time;durP1;ratioP1;P1;durP2;ratioP2;P2;SDS_P1;SDS_P2;PMS_P1;PMS_P2;Temp;Humidity;BMP_temperature;BMP_pressure;BME280_temperature;BME280_humidity;BME280_pressure;Samples;Min_cycle;Max_cycle;Signal;HPM_P1;HPM_P2
2022/03/17 00:00:44;;;;;;;26.13;18.67;;;10.50;99.90;;;;;;5027376;28;20034;-60
2022/03/17 00:03:09;;;;;;;31.77;19.65;;;10.50;99.90;;;;;;5032316;28;20040;-65
2022/03/17 00:05:37;;;;;;;28.13;17.52;;;10.50;99.90;;;;;;5020270;28;20395;-61
2022/03/17 00:08:03;;;;;;;24.85;17.83;;;10.60;99.90;;;;;;5025655;28;20025;-61
2022/03/17 00:10:29;;;;;;;28.10;18.42;;;10.50;99.90;;;;;;5032596;28;20025;-59
2022/03/17 00:12:55;;;;;;;27.63;18.15;;;10.50;99.90;;;;;;5027271;28;20056;-58
2022/03/17 00:15:21;;;;;;;27.77;18.83;;;10.50;99.90;;;;;;5030636;28;20033;-59
2022/03/17 00:17:47;;;;;;;35.63;21.00;;;10.40;99.90;;;;;;5028362;28;20039;-60
2022/03/17 00:20:13;;;;;;;33.53;20.02;;;10.40;99.90;;;;;;5027350;28;20474;-58
2022/03/17 00:22:39;;;;;;;29.67;18.80;;;10.40;99.90;;;;;;5025875;28;20030;-61
2022/03/17 00:25:07;;;;;;;29.00;20.00;;;10.40;99.90;;;;;;5023152;28;20046;-59
2022/03/17 00:27:34;;;;;;;27.17;17.83;;;10.40;99.90;;;;;;5024646;28;20041;-61
2022/03/17 00:29:59;;;;;;;27.15;18.98;;;10.30;99.90;;;;;;5031828;28;20478;-59
2022/03/17 00:32:25;;;;;;;28.38;19.88;;;10.40;99.90;;;;;;5030539;28;20037;-59
2022/03/17 00:37:35;;;;;;;36.50;19.15;;;10.40;99.90;;;;;;5030578;28;20032;-55
2022/03/17 00:40:01;;;;;;;24.00;17.88;;;10.40;99.90;;;;;;5009116;28;20422;-60
2022/03/17 00:42:27;;;;;;;30.65;18.83;;;10.30;99.90;;;;;;5023196;28;20057;-62
2022/03/17 00:44:54;;;;;;;28.25;20.17;;;10.30;99.90;;;;;;5013637;28;20103;-57
2022/03/17 00:47:21;;;;;;;29.02;19.92;;;10.20;99.90;;;;;;5019105;28;20067;-59
2022/03/17 00:49:47;;;;;;;28.83;19.48;;;10.20;99.90;;;;;;5029895;28;20026;-59
2022/03/17 00:52:14;;;;;;;27.92;19.33;;;10.20;99.90;;;;;;5030366;28;20029;-61
2022/03/17 00:54:41;;;;;;;27.25;19.92;;;10.20;99.90;;;;;;5029822;28;20025;-61
2022/03/17 00:57:07;;;;;;;24.23;17.85;;;10.10;99.90;;;;;;5029421;28;20017;-60
2022/03/17 00:59:33;;;;;;;29.20;19.23;;;10.10;99.90;;;;;;5015518;28;20402;-59
2022/03/17 01:01:59;;;;;;;28.27;19.60;;;10.10;99.90;;;;;;5028298;28;20037;-57
2022/03/17 01:04:24;;;;;;;28.80;20.75;;;10.10;99.90;;;;;;5027540;28;20026;-60
2022/03/17 01:06:50;;;;;;;30.65;19.65;;;10.10;99.90;;;;;;5025852;28;20037;-60
2022/03/17 01:09:16;;;;;;;31.30;20.25;;;10.10;99.90;;;;;;5027077;28;20049;-59
2022/03/17 01:11:41;;;;;;;31.35;22.02;;;10.10;99.90;;;;;;5014610;28;20052;-55
2022/03/17 01:14:07;;;;;;;30.63;20.25;;;10.00;99.90;;;;;;5029638;28;20035;-60
2022/03/17 01:16:33;;;;;;;32.28;21.13;;;10.00;99.90;;;;;;5030650;28;20171;-59
2022/03/17 01:18:58;;;;;;;27.02;19.92;;;10.00;99.90;;;;;;5024058;28;20036;-56
2022/03/17 01:21:24;;;;;;;32.17;20.20;;;10.00;99.90;;;;;;5022579;28;20042;-57
2022/03/17 01:23:49;;;;;;;29.20;19.38;;;9.90;99.90;;;;;;5027882;28;20025;-59
2022/03/17 01:26:15;;;;;;;27.35;20.25;;;9.90;99.90;;;;;;5019286;28;20517;-59
2022/03/17 01:28:41;;;;;;;30.50;19.95;;;9.90;99.90;;;;;;5020419;28;20418;-57
2022/03/17 01:31:08;;;;;;;31.98;22.13;;;9.80;99.90;;;;;;5032934;28;20522;-59
2022/03/17 01:33:34;;;;;;;34.90;21.45;;;9.80;99.90;;;;;;5031682;28;20482;-62
2022/03/17 01:35:59;;;;;;;32.65;21.02;;;9.80;99.90;;;;;;5043385;28;20034;-59
2022/03/17 01:38:25;;;;;;;31.38;20.67;;;9.80;99.90;;;;;;5024016;28;20038;-61
2022/03/17 01:40:50;;;;;;;28.45;20.85;;;9.90;99.90;;;;;;5013691;28;20057;-59
2022/03/17 01:43:16;;;;;;;35.25;21.98;;;9.90;99.90;;;;;;5032149;28;20030;-59
2022/03/17 01:45:41;;;;;;;34.70;21.20;;;9.80;99.90;;;;;;5023994;28;20032;-56
2022/03/17 01:48:07;;;;;;;28.02;19.60;;;9.80;99.90;;;;;;5042576;28;20018;-55
2022/03/17 01:50:32;;;;;;;31.15;20.88;;;9.80;99.90;;;;;;5006224;28;20056;-59
2022/03/17 01:52:58;;;;;;;33.15;23.08;;;9.90;99.90;;;;;;5046545;28;20033;-58
2022/03/17 01:55:25;;;;;;;28.35;20.08;;;9.90;99.90;;;;;;5030557;28;20457;-59
2022/03/17 01:57:50;;;;;;;33.00;21.65;;;9.90;99.90;;;;;;5030268;28;20479;-59
2022/03/17 02:00:18;;;;;;;32.83;21.58;;;9.90;99.90;;;;;;5029830;28;20096;-59
2022/03/17 02:02:47;;;;;;;31.35;21.08;;;9.90;99.90;;;;;;5028310;28;20029;-58
2022/03/17 02:05:13;;;;;;;34.63;21.77;;;9.90;99.90;;;;;;5022237;28;20200;-59
2022/03/17 02:07:42;;;;;;;33.60;22.23;;;10.00;99.90;;;;;;5027783;28;20056;-58
2022/03/17 02:10:08;;;;;;;36.45;23.15;;;10.00;99.90;;;;;;5030717;28;20021;-56
2022/03/17 02:15:18;;;;;;;35.22;22.23;;;9.90;99.90;;;;;;5025835;28;20052;-59
2022/03/17 02:17:43;;;;;;;33.60;21.20;;;9.90;99.90;;;;;;5025287;28;20034;-59
2022/03/17 02:20:12;;;;;;;31.67;22.27;;;9.90;99.90;;;;;;5024481;28;20059;-59
2022/03/17 02:22:45;;;;;;;32.20;22.20;;;9.90;99.90;;;;;;5017978;28;20111;-59
2022/03/17 02:27:57;;;;;;;31.92;22.55;;;9.90;99.90;;;;;;5022277;28;20056;-61
2022/03/17 02:30:23;;;;;;;34.60;21.85;;;9.90;99.90;;;;;;5029570;28;20033;-57
2022/03/17 02:32:49;;;;;;;32.75;23.13;;;9.80;99.90;;;;;;5024648;28;20029;-59
2022/03/17 02:35:23;;;;;;;33.65;23.15;;;9.90;99.90;;;;;;5028759;28;20080;-58
2022/03/17 02:37:50;;;;;;;;;;;9.80;99.90;;;;;;5027413;28;20033;-58
2022/03/17 02:40:15;;;;;;;32.42;21.70;;;9.80;99.90;;;;;;5029947;28;19955;-61
2022/03/17 02:42:41;;;;;;;32.92;22.27;;;9.70;99.90;;;;;;5006561;28;20410;-60
2022/03/17 02:45:12;;;;;;;31.60;22.50;;;9.70;99.90;;;;;;5021813;28;20029;-59
2022/03/17 02:51:00;;;;;;;33.63;22.33;;;9.70;99.90;;;;;;5014570;28;20091;-60
2022/03/17 02:53:25;;;;;;;32.40;22.58;;;9.70;99.90;;;;;;5020234;28;20029;-61
2022/03/17 02:55:50;;;;;;;31.20;23.02;;;9.80;99.90;;;;;;5013736;28;20116;-59
2022/03/17 02:58:16;;;;;;;36.22;24.48;;;9.80;99.90;;;;;;5021297;28;20037;-61
2022/03/17 03:00:42;;;;;;;34.28;23.65;;;9.80;99.90;;;;;;5026206;28;20030;-61
2022/03/17 03:03:07;;;;;;;35.72;24.35;;;9.80;99.90;;;;;;5017548;28;20061;-60
2022/03/17 03:05:34;;;;;;;32.72;23.63;;;9.90;99.90;;;;;;5027832;28;20025;-60
2022/03/17 03:07:59;;;;;;;34.83;22.70;;;9.80;99.90;;;;;;5027941;28;20026;-60
2022/03/17 03:10:25;;;;;;;34.65;23.50;;;9.80;99.90;;;;;;5026215;28;20030;-55
2022/03/17 03:12:51;;;;;;;31.42;23.38;;;9.80;99.90;;;;;;5028561;28;20411;-61
2022/03/17 03:15:16;;;;;;;31.95;22.58;;;9.80;99.90;;;;;;5030606;28;20052;-60
2022/03/17 03:17:42;;;;;;;33.00;22.77;;;9.80;99.90;;;;;;5024119;28;20643;-60
2022/03/17 03:20:08;;;;;;;30.50;21.77;;;9.80;99.90;;;;;;5029725;28;20101;-60
2022/03/17 03:22:39;;;;;;;34.08;23.95;;;9.80;99.90;;;;;;5027084;28;20105;-61
2022/03/17 03:25:07;;;;;;;35.00;23.67;;;9.80;99.90;;;;;;5025744;28;20044;-60
2022/03/17 03:27:33;;;;;;;35.53;22.48;;;9.80;99.90;;;;;;5019463;28;20028;-59
2022/03/17 03:29:58;;;;;;;35.30;23.50;;;9.80;99.90;;;;;;5033893;28;20029;-61
2022/03/17 03:32:25;;;;;;;36.35;23.73;;;9.80;99.90;;;;;;5032358;28;20021;-53
2022/03/17 03:34:51;;;;;;;37.03;23.80;;;9.80;99.90;;;;;;5033654;28;20053;-58
2022/03/17 03:37:24;;;;;;;31.55;22.40;;;9.80;99.90;;;;;;5033202;28;20067;-58
2022/03/17 03:39:52;;;;;;;32.63;24.40;;;9.80;99.90;;;;;;5032969;28;20091;-60
2022/03/17 03:42:18;;;;;;;36.50;25.15;;;9.80;99.90;;;;;;5031103;28;20663;-60
2022/03/17 03:44:44;;;;;;;37.55;26.23;;;9.80;99.90;;;;;;5031764;28;20028;-60
2022/03/17 03:47:11;;;;;;;36.33;23.48;;;9.80;99.90;;;;;;5029235;28;20055;-61
2022/03/17 03:49:41;;;;;;;36.08;23.10;;;9.80;99.90;;;;;;5033129;28;20025;-55
2022/03/17 03:52:09;;;;;;;35.78;25.42;;;9.80;99.90;;;;;;5028041;28;20029;-60
2022/03/17 03:54:36;;;;;;;33.75;24.20;;;9.80;99.90;;;;;;5017830;28;20053;-58
2022/03/17 03:57:02;;;;;;;34.40;23.35;;;9.80;99.90;;;;;;5027949;28;20553;-62
2022/03/17 03:59:29;;;;;;;33.75;24.08;;;9.80;99.90;;;;;;5033506;28;20438;-60
2022/03/17 04:02:15;;;;;;;38.67;24.48;;;9.70;99.90;;;;;;5032911;28;20703;-60
2022/03/17 04:04:42;;;;;;;39.60;24.98;;;9.80;99.90;;;;;;5016570;28;20132;-61
2022/03/17 04:07:10;;;;;;;36.85;27.10;;;9.80;99.90;;;;;;5017638;28;20033;-61
2022/03/17 04:09:39;;;;;;;38.17;25.27;;;9.80;99.90;;;;;;5023919;28;20386;-59
2022/03/17 04:12:10;;;;;;;37.97;25.58;;;9.80;99.90;;;;;;5027485;28;20030;-59
2022/03/17 04:14:36;;;;;;;36.65;26.20;;;9.70;99.90;;;;;;5029326;28;20029;-61
2022/03/17 04:17:03;;;;;;;38.28;25.08;;;9.70;99.90;;;;;;5032568;28;20075;-61
2022/03/17 04:19:29;;;;;;;38.50;26.63;;;9.70;99.90;;;;;;5023516;28;20061;-59
2022/03/17 04:21:54;;;;;;;39.17;26.63;;;9.70;99.90;;;;;;5030031;28;20064;-58
2022/03/17 04:24:21;;;;;;;37.40;26.27;;;9.60;99.90;;;;;;5032519;28;20026;-60
2022/03/17 04:26:47;;;;;;;40.72;25.80;;;9.60;99.90;;;;;;5032348;28;20056;-58
2022/03/17 04:29:13;;;;;;;40.65;28.17;;;9.60;99.90;;;;;;5022463;28;20056;-61
2022/03/17 04:31:41;;;;;;;41.85;28.70;;;9.60;99.90;;;;;;5027411;28;20103;-61
2022/03/17 04:34:07;;;;;;;42.85;28.35;;;9.60;99.90;;;;;;5030556;28;20108;-61
2022/03/17 04:36:33;;;;;;;39.13;27.48;;;9.60;99.90;;;;;;5032631;28;20036;-60
2022/03/17 04:39:00;;;;;;;40.35;27.85;;;9.50;99.90;;;;;;5032157;28;20037;-60
2022/03/17 04:41:26;;;;;;;41.42;28.25;;;9.40;99.90;;;;;;5029653;28;20041;-60
2022/03/17 04:43:51;;;;;;;39.42;26.77;;;9.40;99.90;;;;;;5031074;28;20029;-59
2022/03/17 04:46:17;;;;;;;40.30;28.42;;;9.40;99.90;;;;;;5015054;28;20501;-62
2022/03/17 04:48:42;;;;;;;42.30;29.02;;;9.40;99.90;;;;;;5016683;28;20486;-60
2022/03/17 04:51:08;;;;;;;42.40;28.80;;;9.40;99.90;;;;;;5032740;28;20037;-59
2022/03/17 04:53:35;;;;;;;40.92;28.70;;;9.40;99.90;;;;;;5032888;28;20018;-60
2022/03/17 04:56:04;;;;;;;42.70;28.73;;;9.40;99.90;;;;;;5033339;28;20099;-59
2022/03/17 04:58:32;;;;;;;41.78;28.45;;;9.40;99.90;;;;;;5031078;28;20083;-58
2022/03/17 05:00:59;;;;;;;40.88;28.48;;;9.40;99.90;;;;;;5031613;28;20029;-62
2022/03/17 05:03:24;;;;;;;46.47;30.38;;;9.40;99.90;;;;;;5028204;28;20025;-61
2022/03/17 05:05:50;;;;;;;41.80;28.85;;;9.40;99.90;;;;;;5016700;28;20030;-59
2022/03/17 05:08:16;;;;;;;52.00;31.98;;;9.30;99.90;;;;;;5024190;28;20021;-60
2022/03/17 05:10:43;;;;;;;44.22;29.55;;;9.30;99.90;;;;;;5032178;28;20040;-60
2022/03/17 05:13:11;;;;;;;43.42;29.73;;;9.30;99.90;;;;;;5032132;28;20021;-61
2022/03/17 05:15:38;;;;;;;42.70;29.77;;;9.30;99.90;;;;;;5028222;28;20402;-59
2022/03/17 05:18:05;;;;;;;42.67;29.70;;;9.30;99.90;;;;;;5027287;28;20044;-60
2022/03/17 05:20:30;;;;;;;45.15;30.05;;;9.20;99.90;;;;;;5023352;28;20022;-58
2022/03/17 05:22:56;;;;;;;44.00;31.27;;;9.20;99.90;;;;;;5028900;28;20040;-61
2022/03/17 05:25:22;;;;;;;46.38;31.88;;;9.20;99.90;;;;;;5031080;28;20406;-57
2022/03/17 05:27:49;;;;;;;46.47;32.88;;;9.20;99.90;;;;;;5029863;28;20030;-60
2022/03/17 05:30:17;;;;;;;46.35;31.58;;;9.10;99.90;;;;;;5016589;28;20024;-66
2022/03/17 05:32:44;;;;;;;51.63;31.73;;;9.10;99.90;;;;;;5031975;28;20022;-60
2022/03/17 05:35:12;;;;;;;48.55;32.42;;;9.20;99.90;;;;;;5029521;28;20057;-61
2022/03/17 05:37:38;;;;;;;48.42;33.45;;;9.10;99.90;;;;;;5027061;28;20037;-59
2022/03/17 05:40:06;;;;;;;47.55;32.42;;;9.10;99.90;;;;;;5022368;28;20030;-60
2022/03/17 05:42:33;;;;;;;49.33;32.55;;;9.10;99.90;;;;;;5015794;28;20066;-60
2022/03/17 05:44:58;;;;;;;50.95;34.67;;;9.10;99.90;;;;;;5030935;28;20486;-61
2022/03/17 05:47:24;;;;;;;54.47;37.08;;;9.10;99.90;;;;;;5029821;28;20048;-61
2022/03/17 05:49:50;;;;;;;49.90;34.17;;;9.00;99.90;;;;;;5029856;28;20091;-60
2022/03/17 05:52:15;;;;;;;54.17;34.20;;;9.00;99.90;;;;;;5030614;28;20026;-60
2022/03/17 05:54:41;;;;;;;53.42;35.50;;;9.00;99.90;;;;;;5030212;28;20072;-61
2022/03/17 05:57:09;;;;;;;54.63;37.38;;;8.90;99.90;;;;;;5022906;28;20026;-60
2022/03/17 05:59:39;;;;;;;54.90;35.92;;;8.90;99.90;;;;;;5017749;28;20026;-61
2022/03/17 06:02:05;;;;;;;54.53;36.38;;;8.90;99.90;;;;;;5025181;28;20029;-60
2022/03/17 06:04:30;;;;;;;57.28;37.10;;;8.90;99.90;;;;;;5030217;28;20029;-57
2022/03/17 06:06:56;;;;;;;55.05;37.10;;;8.80;99.90;;;;;;5028842;28;20108;-59
2022/03/17 06:09:21;;;;;;;56.78;37.97;;;8.90;99.90;;;;;;5015840;28;20056;-61
2022/03/17 06:11:47;;;;;;;56.03;37.65;;;8.80;99.90;;;;;;5031077;28;20033;-61
2022/03/17 06:14:12;;;;;;;58.10;37.33;;;8.80;99.90;;;;;;5027397;28;20040;-61
2022/03/17 06:16:38;;;;;;;56.00;38.35;;;8.80;99.90;;;;;;5020574;28;20116;-62
2022/03/17 06:19:03;;;;;;;55.65;38.65;;;8.80;99.90;;;;;;5027426;28;20033;-60
2022/03/17 06:21:29;;;;;;;57.00;37.83;;;8.80;99.90;;;;;;5030090;28;20380;-60
2022/03/17 06:23:54;;;;;;;55.20;37.55;;;8.80;99.90;;;;;;5029662;28;20169;-58
2022/03/17 06:26:20;;;;;;;61.72;39.22;;;8.80;99.90;;;;;;5028759;28;20037;-61
2022/03/17 06:28:45;;;;;;;63.70;39.28;;;8.90;99.90;;;;;;5019263;28;20044;-59
2022/03/17 06:31:12;;;;;;;57.95;38.42;;;8.80;99.90;;;;;;5027651;28;20037;-61
2022/03/17 06:33:38;;;;;;;60.80;39.13;;;8.90;99.90;;;;;;5029384;28;20389;-62
2022/03/17 06:36:04;;;;;;;56.03;37.88;;;8.90;99.90;;;;;;5030200;28;20028;-61
2022/03/17 06:38:30;;;;;;;59.28;39.35;;;8.90;99.90;;;;;;5030182;28;20025;-61
2022/03/17 06:40:55;;;;;;;63.78;40.15;;;8.90;99.90;;;;;;5029584;28;20490;-61
2022/03/17 06:43:20;;;;;;;63.22;39.63;;;8.90;99.90;;;;;;5014619;28;20550;-61
2022/03/17 06:45:46;;;;;;;60.28;39.05;;;8.90;99.90;;;;;;5026576;28;20041;-60
2022/03/17 06:48:12;;;;;;;62.78;38.42;;;9.00;99.90;;;;;;5024147;28;20026;-61
2022/03/17 06:50:37;;;;;;;61.47;36.42;;;9.00;99.90;;;;;;5021287;28;20037;-61
2022/03/17 06:53:03;;;;;;;58.20;34.83;;;9.00;99.90;;;;;;5019475;28;20026;-60
2022/03/17 06:55:31;;;;;;;48.35;30.88;;;9.00;99.90;;;;;;5014081;28;20112;-60
2022/03/17 06:57:56;;;;;;;46.47;28.75;;;9.10;99.90;;;;;;5027710;28;20025;-61
2022/03/17 07:00:22;;;;;;;41.55;27.77;;;9.10;99.90;;;;;;5028842;28;20034;-60
2022/03/17 07:02:48;;;;;;;47.83;28.90;;;9.00;99.90;;;;;;5025999;28;20034;-60
2022/03/17 07:05:14;;;;;;;43.13;28.88;;;8.90;99.90;;;;;;5028500;28;20053;-60
2022/03/17 07:07:40;;;;;;;44.47;27.92;;;8.90;99.90;;;;;;5025414;28;20022;-61
2022/03/17 07:10:06;;;;;;;40.03;26.10;;;8.90;99.90;;;;;;5028984;28;20272;-61
2022/03/17 07:12:33;;;;;;;48.60;28.63;;;8.90;99.90;;;;;;5023930;28;20108;-60
2022/03/17 07:14:59;;;;;;;48.53;28.65;;;8.90;99.90;;;;;;5017197;28;20032;-61
2022/03/17 07:17:26;;;;;;;45.35;27.30;;;8.90;99.90;;;;;;5026463;28;20034;-61
2022/03/17 07:22:24;;;;;;;46.88;28.35;;;8.80;99.90;;;;;;5022430;28;20491;-59
2022/03/17 07:24:50;;;;;;;50.22;27.73;;;8.80;99.90;;;;;;5029748;28;20052;-57
2022/03/17 07:27:15;;;;;;;39.70;26.13;;;8.70;99.90;;;;;;5029851;28;20801;-60
2022/03/17 07:29:41;;;;;;;44.67;24.83;;;8.80;99.90;;;;;;5029694;28;20404;-59
2022/03/17 07:32:06;;;;;;;42.08;23.80;;;8.70;99.90;;;;;;5028659;28;20029;-61
2022/03/17 07:34:32;;;;;;;43.00;23.95;;;8.60;99.90;;;;;;5021261;28;20052;-61
2022/03/17 07:36:58;;;;;;;40.92;23.98;;;8.60;99.90;;;;;;5028836;28;20036;-60
2022/03/17 07:39:23;;;;;;;45.55;23.58;;;8.60;99.90;;;;;;5028800;28;20033;-60
2022/03/17 07:41:49;;;;;;;42.20;23.40;;;8.60;99.90;;;;;;5018846;28;20117;-60
2022/03/17 07:44:14;;;;;;;38.63;21.70;;;8.60;99.90;;;;;;5013821;28;20041;-60
2022/03/17 07:46:40;;;;;;;39.33;22.45;;;8.50;99.90;;;;;;5029293;28;20075;-61
2022/03/17 07:49:06;;;;;;;35.00;19.40;;;8.50;99.90;;;;;;5029982;28;20030;-61
2022/03/17 07:51:31;;;;;;;35.38;21.00;;;8.40;99.90;;;;;;5018829;28;20033;-61
2022/03/17 07:53:57;;;;;;;39.65;24.48;;;8.50;99.90;;;;;;5014907;28;20105;-63
2022/03/17 07:56:23;;;;;;;34.35;22.58;;;8.40;99.90;;;;;;5019316;28;20033;-61
2022/03/17 07:58:49;;;;;;;43.35;23.05;;;8.40;99.90;;;;;;5018688;28;20095;-59
2022/03/17 08:01:16;;;;;;;34.65;21.23;;;8.30;99.90;;;;;;5028020;28;20033;-60
2022/03/17 08:03:41;;;;;;;36.08;21.50;;;8.30;99.90;;;;;;5027504;28;20017;-61
2022/03/17 08:06:07;;;;;;;30.05;19.42;;;8.20;99.90;;;;;;5028006;28;20095;-61
2022/03/17 08:08:34;;;;;;;30.63;19.38;;;8.30;99.90;;;;;;5028382;28;20033;-60
2022/03/17 08:11:00;;;;;;;32.28;18.83;;;8.30;99.90;;;;;;5029643;28;20109;-60
2022/03/17 08:13:25;;;;;;;26.67;15.93;;;8.20;99.90;;;;;;5028234;28;20108;-61
2022/03/17 08:15:52;;;;;;;24.52;16.58;;;8.30;99.90;;;;;;5032589;28;20478;-60
2022/03/17 08:18:18;;;;;;;25.17;15.98;;;8.30;99.90;;;;;;5027997;28;20222;-61
2022/03/17 08:20:43;;;;;;;22.35;14.63;;;8.30;99.90;;;;;;5033362;28;20021;-60
2022/03/17 08:23:09;;;;;;;21.83;14.00;;;8.20;99.90;;;;;;5025763;28;20030;-59
2022/03/17 08:25:36;;;;;;;22.98;13.82;;;8.20;99.90;;;;;;5016216;28;20033;-60
2022/03/17 08:28:02;;;;;;;27.75;14.63;;;8.20;99.90;;;;;;5028944;28;20133;-61
2022/03/17 08:30:36;;;;;;;23.48;14.75;;;8.30;99.90;;;;;;5024889;28;20036;-51
2022/03/17 08:33:02;;;;;;;27.98;14.15;;;8.40;99.90;;;;;;5032570;28;20029;-60
2022/03/17 08:35:28;;;;;;;21.67;14.90;;;8.40;99.90;;;;;;5032839;28;20100;-60
2022/03/17 08:37:55;;;;;;;24.45;15.13;;;8.40;99.90;;;;;;5025425;28;20052;-62
2022/03/17 08:40:22;;;;;;;22.58;14.27;;;8.50;99.90;;;;;;5030942;28;20033;-60
2022/03/17 08:42:47;;;;;;;19.65;13.52;;;8.50;99.90;;;;;;5029222;28;20813;-62
2022/03/17 08:50:44;;;;;;;23.83;15.77;;;8.60;99.90;;;;;;5022705;28;20604;-61
2022/03/17 08:53:10;;;;;;;25.88;15.50;;;8.50;99.90;;;;;;5025953;28;20116;-62
2022/03/17 08:55:37;;;;;;;29.33;16.92;;;8.50;99.90;;;;;;5032512;28;20450;-60
2022/03/17 08:58:03;;;;;;;24.77;16.27;;;8.30;99.90;;;;;;5027533;28;20022;-58
2022/03/17 09:00:34;;;;;;;27.40;15.82;;;8.30;99.90;;;;;;5026738;28;20398;-54
2022/03/17 09:03:07;;;;;;;25.90;16.02;;;8.20;99.90;;;;;;5025160;28;20054;-59
2022/03/17 09:05:35;;;;;;;25.35;14.73;;;8.20;99.90;;;;;;5032028;28;20022;-61
2022/03/17 09:08:04;;;;;;;23.17;12.25;;;8.20;99.90;;;;;;5027173;28;20044;-61
2022/03/17 09:10:31;;;;;;;21.95;12.55;;;8.20;99.90;;;;;;5022006;28;20025;-53
2022/03/17 09:12:57;;;;;;;18.75;12.35;;;8.20;99.90;;;;;;5014816;28;20029;-61
2022/03/17 09:15:30;;;;;;;23.38;11.73;;;8.30;99.90;;;;;;5018025;28;20033;-61
2022/03/17 09:17:56;;;;;;;17.02;10.02;;;8.40;99.90;;;;;;5026906;28;20060;-60
2022/03/17 09:20:22;;;;;;;18.55;10.73;;;8.40;99.90;;;;;;5031375;28;20144;-60
2022/03/17 09:22:49;;;;;;;21.85;10.35;;;8.40;99.90;;;;;;5025540;28;20113;-60
2022/03/17 09:25:15;;;;;;;22.98;10.88;;;8.40;99.90;;;;;;5022232;28;20492;-60
2022/03/17 09:27:40;;;;;;;19.40;9.43;;;8.40;99.90;;;;;;5028343;28;20092;-59
2022/03/17 09:30:07;;;;;;;16.80;9.52;;;8.40;99.90;;;;;;5031505;28;20116;-57
2022/03/17 09:32:32;;;;;;;20.98;8.95;;;8.40;99.90;;;;;;5027700;28;20026;-60
2022/03/17 09:34:59;;;;;;;18.15;9.38;;;8.30;99.90;;;;;;5032256;28;20052;-60
2022/03/17 09:37:28;;;;;;;14.02;7.88;;;8.30;99.90;;;;;;5030199;28;20061;-59
2022/03/17 09:39:54;;;;;;;18.42;8.07;;;8.20;99.90;;;;;;5031667;28;20051;-61
2022/03/17 09:42:21;;;;;;;21.20;9.98;;;8.20;99.90;;;;;;5031950;28;20514;-60
2022/03/17 09:44:52;;;;;;;16.15;7.63;;;8.20;99.90;;;;;;5021770;28;20026;-59
2022/03/17 09:47:20;;;;;;;13.88;7.78;;;8.30;99.90;;;;;;5007953;28;20049;-61
2022/03/17 09:49:48;;;;;;;18.30;7.38;;;8.40;99.90;;;;;;5030580;28;20025;-61
2022/03/17 09:52:14;;;;;;;12.07;6.30;;;8.50;99.90;;;;;;5023654;28;20057;-60
2022/03/17 09:54:43;;;;;;;11.75;4.78;;;8.60;99.90;;;;;;5031525;28;20025;-59
2022/03/17 09:57:09;;;;;;;15.32;5.40;;;8.70;99.90;;;;;;5030223;28;20030;-60
2022/03/17 09:59:34;;;;;;;12.63;4.43;;;8.80;99.90;;;;;;5030584;28;20033;-61
2022/03/17 10:02:01;;;;;;;10.43;4.20;;;8.90;99.90;;;;;;5025961;28;20089;-60
2022/03/17 10:04:36;;;;;;;9.90;4.15;;;9.00;99.90;;;;;;5022137;28;20021;-59
2022/03/17 10:07:02;;;;;;;8.35;4.05;;;9.10;99.90;;;;;;5030291;28;20616;-58
2022/03/17 10:09:29;;;;;;;9.27;2.80;;;9.10;99.90;;;;;;5027159;28;20667;-60
2022/03/17 10:12:06;;;;;;;10.27;2.75;;;8.90;99.90;;;;;;5014424;28;20038;-60
2022/03/17 10:14:43;;;;;;;6.00;2.35;;;8.90;99.90;;;;;;5023384;28;20112;-58
2022/03/17 10:17:35;;;;;;;8.55;3.08;;;8.90;99.90;;;;;;5030089;28;20037;-60
2022/03/17 10:20:22;;;;;;;6.47;2.38;;;9.10;99.90;;;;;;5027248;28;20734;-61
2022/03/17 10:22:52;;;;;;;9.80;2.80;;;9.30;99.90;;;;;;5027678;28;20745;-61
2022/03/17 10:25:30;;;;;;;6.05;1.88;;;9.40;99.90;;;;;;5027658;28;20033;-59
2022/03/17 10:27:56;;;;;;;7.20;2.75;;;9.60;99.90;;;;;;5023187;28;20021;-61
2022/03/17 10:30:34;;;;;;;2.83;1.98;;;9.90;99.90;;;;;;5029964;28;20679;-61
2022/03/17 10:33:04;;;;;;;7.75;2.67;;;10.00;99.90;;;;;;5029698;28;20108;-60
2022/03/17 10:35:36;;;;;;;5.15;2.53;;;9.90;99.90;;;;;;5027180;28;20533;-62
2022/03/17 10:38:11;;;;;;;5.97;2.40;;;9.70;99.90;;;;;;5015414;28;20033;-61
2022/03/17 10:40:38;;;;;;;5.72;2.28;;;9.70;99.90;;;;;;5014641;28;20029;-61
2022/03/17 10:43:20;;;;;;;6.68;3.53;;;9.50;99.90;;;;;;5030495;28;20517;-61
2022/03/17 10:45:46;;;;;;;5.70;2.40;;;9.60;99.90;;;;;;5030903;28;20151;-61
2022/03/17 10:48:12;;;;;;;10.40;3.13;;;9.60;99.90;;;;;;5007736;28;20140;-61
2022/03/17 10:50:44;;;;;;;6.95;3.22;;;9.70;99.90;;;;;;5025572;28;20022;-62
2022/03/17 10:53:10;;;;;;;5.65;2.97;;;9.60;99.90;;;;;;5025954;28;20029;-60
2022/03/17 10:55:38;;;;;;;10.50;4.15;;;9.50;99.90;;;;;;5026703;28;20025;-60
2022/03/17 10:58:20;;;;;;;10.75;4.25;;;9.40;99.90;;;;;;5027870;28;20388;-59
2022/03/17 11:00:51;;;;;;;8.85;4.22;;;9.30;99.90;;;;;;5025043;28;20394;-59
2022/03/17 11:03:21;;;;;;;12.05;3.60;;;9.40;99.90;;;;;;5021258;28;20115;-60
2022/03/17 11:05:51;;;;;;;7.28;3.53;;;9.50;99.90;;;;;;5020539;28;20036;-62
2022/03/17 11:08:18;;;;;;;7.82;3.47;;;9.60;99.90;;;;;;5029505;28;20025;-59
2022/03/17 11:10:44;;;;;;;10.18;2.72;;;9.40;99.90;;;;;;5030011;28;20017;-61
2022/03/17 11:13:11;;;;;;;6.03;2.35;;;9.40;99.90;;;;;;5024636;28;20026;-61
2022/03/17 11:15:41;;;;;;;6.13;2.33;;;9.40;99.90;;;;;;5030255;28;20072;-62
2022/03/17 11:18:15;;;;;;;10.00;3.00;;;9.40;99.90;;;;;;5028617;28;20500;-61
2022/03/17 11:20:40;;;;;;;7.53;3.00;;;9.30;99.90;;;;;;5028198;28;20546;-58
2022/03/17 11:23:35;;;;;;;8.40;2.70;;;9.40;99.90;;;;;;5029421;28;20036;-60
2022/03/17 11:26:01;;;;;;;5.70;1.90;;;9.60;99.90;;;;;;5026741;28;20031;-61
2022/03/17 11:28:34;;;;;;;8.50;1.92;;;9.60;99.90;;;;;;5017570;28;20033;-59
2022/03/17 11:31:09;;;;;;;6.80;1.77;;;9.50;99.90;;;;;;5025939;28;20044;-59
2022/03/17 11:33:40;;;;;;;6.80;1.65;;;9.50;99.90;;;;;;5027510;28;20591;-59
2022/03/17 11:36:08;;;;;;;6.05;1.85;;;9.40;99.90;;;;;;5030398;28;20414;-58
2022/03/17 11:38:39;;;;;;;7.72;2.33;;;9.30;99.90;;;;;;5028428;28;20025;-56
2022/03/17 11:41:15;;;;;;;4.38;1.73;;;9.40;99.90;;;;;;5027819;28;20104;-58
2022/03/17 11:43:47;;;;;;;4.72;1.70;;;9.30;99.90;;;;;;5018896;28;20033;-62
2022/03/17 11:46:16;;;;;;;4.40;1.88;;;9.30;99.90;;;;;;5008882;28;20029;-60
2022/03/17 11:48:43;;;;;;;4.80;1.80;;;9.20;99.90;;;;;;5027269;28;20025;-57
2022/03/17 11:51:11;;;;;;;5.45;1.90;;;9.30;99.90;;;;;;5033835;28;20121;-60
2022/03/17 11:53:44;;;;;;;5.95;1.83;;;9.30;99.90;;;;;;5023117;28;20029;-61
2022/03/17 11:56:10;;;;;;;6.28;1.90;;;9.10;99.90;;;;;;5033334;28;20034;-57
2022/03/17 11:58:42;;;;;;;5.65;1.90;;;9.30;99.90;;;;;;5033411;28;20367;-57
2022/03/17 12:01:22;;;;;;;9.45;1.90;;;9.50;99.90;;;;;;5034662;28;20036;-58
2022/03/17 12:03:54;;;;;;;4.47;1.45;;;9.50;99.90;;;;;;5028579;28;20029;-56
2022/03/17 12:06:23;;;;;;;6.03;1.75;;;9.60;99.90;;;;;;5025448;28;20024;-58
2022/03/17 12:09:01;;;;;;;6.40;1.48;;;9.60;99.90;;;;;;5026270;28;20025;-58
2022/03/17 12:11:46;;;;;;;6.72;1.85;;;9.70;99.90;;;;;;5032294;28;20034;-60
2022/03/17 12:14:24;;;;;;;7.18;1.85;;;9.70;99.90;;;;;;5024046;28;20024;-59
2022/03/17 12:16:53;;;;;;;11.50;3.22;;;9.80;99.90;;;;;;5028007;28;20017;-59
2022/03/17 12:19:30;;;;;;;6.63;3.00;;;9.80;99.90;;;;;;5032003;28;20037;-59
2022/03/17 12:22:01;;;;;;;6.15;3.33;;;10.00;99.90;;;;;;5031702;28;20024;-58
2022/03/17 12:24:46;;;;;;;8.10;3.10;;;10.10;99.90;;;;;;5026189;28;20079;-60
2022/03/17 12:27:19;;;;;;;9.93;4.38;;;10.00;99.90;;;;;;5024002;28;20034;-58
2022/03/17 12:29:48;;;;;;;10.82;4.75;;;10.30;99.90;;;;;;5023760;28;20029;-60
2022/03/17 12:32:21;;;;;;;12.40;4.25;;;10.40;99.90;;;;;;5025673;28;20038;-58
2022/03/17 12:34:49;;;;;;;10.25;5.40;;;10.60;99.90;;;;;;5023890;28;20048;-60
2022/03/17 12:37:17;;;;;;;11.07;5.07;;;10.60;99.90;;;;;;5027124;28;20029;-60
2022/03/17 12:39:51;;;;;;;7.97;4.13;;;10.70;99.90;;;;;;5023708;28;20033;-59
2022/03/17 12:42:28;;;;;;;9.05;4.47;;;10.50;99.90;;;;;;5023407;28;20025;-59
2022/03/17 12:44:56;;;;;;;9.88;4.95;;;10.50;99.90;;;;;;5031011;28;20512;-59
2022/03/17 12:47:24;;;;;;;10.68;4.80;;;10.60;99.90;;;;;;5031133;28;20053;-59
2022/03/17 12:49:51;;;;;;;16.23;4.47;;;10.80;99.90;;;;;;5022416;28;20505;-59
2022/03/17 12:52:22;;;;;;;13.05;4.28;;;11.10;99.90;;;;;;5031769;28;20038;-60
2022/03/17 12:54:49;;;;;;;11.05;4.10;;;11.10;99.90;;;;;;5024905;28;20033;-60
2022/03/17 12:57:15;;;;;;;8.77;4.55;;;11.00;99.90;;;;;;5022844;28;20112;-58
2022/03/17 12:59:40;;;;;;;20.70;7.05;;;11.00;99.90;;;;;;5023155;28;20262;-57
2022/03/17 13:02:06;;;;;;;21.35;9.75;;;10.90;99.90;;;;;;5036849;28;20022;-60